Date,TemperatureHighF,TemperatureAvgF,TemperatureLowF,DewpointHighF,DewpointAvgF,DewpointLowF,HumidityHigh,HumidityAvg,HumidityLow,PressureMaxIn,PressureMinIn,WindSpeedMaxMPH,WindSpeedAvgMPH,GustSpeedMaxMPH,PrecipitationSumIn
2013-1-1,26.0,18.7,7.9,24.0,11.6,-1.0,92,74,64,29.86,29.67,18,5,35,0.00
2013-1-2,16.5,9.2,-4.0,12.0,3.3,-9.0,85,77,62,30.11,29.85,20,3,23,0.00
2013-1-3,18.0,9.6,-4.2,15.0,-0.7,-12.0,89,65,30,30.13,29.97,18,3,32,0.01
2013-1-4,26.9,23.6,17.9,20.0,18.4,15.0,90,81,73,29.95,29.77,23,5,39,0.01
2013-1-5,29.4,24.2,17.4,21.0,17.5,13.0,88,76,58,30.20,29.79,19,3,33,0.00
2013-1-6,30.2,25.9,17.2,26.0,21.8,14.0,91,84,80,30.14,29.90,14,3,27,0.02
2013-1-7,29.6,23.1,14.9,27.0,17.5,12.0,90,80,55,30.33,29.94,10,2,25,0.01
2013-1-8,35.3,31.1,25.5,20.0,18.7,17.0,77,61,49,30.33,30.21,26,4,30,0.00
2013-1-9,39.5,31.6,21.3,32.0,22.8,16.0,83,70,52,30.32,29.96,26,3,41,0.00
2013-1-10,34.3,30.5,25.2,28.0,21.3,19.0,81,69,59,30.50,30.01,14,5,36,0.01
2013-1-11,31.4,27.1,20.5,31.0,22.1,15.0,97,82,66,30.48,30.14,10,2,18,0.14
2013-1-12,40.3,34.7,31.3,40.0,34.0,31.0,98,97,96,30.15,30.08,8,0,9,0.00
2013-1-13,55.9,43.1,34.6,49.0,41.6,34.0,98,94,77,30.09,29.91,16,2,32,0.00
2013-1-14,51.8,38.0,26.9,51.0,33.9,20.0,98,86,70,30.21,29.80,12,3,27,0.07
2013-1-15,28.8,25.5,22.1,21.0,19.5,18.0,87,78,69,30.29,30.15,6,1,12,0.00
2013-1-16,30.3,25.5,22.2,28.0,23.1,19.0,95,90,80,30.20,29.77,13,1,20,0.28
2013-1-17,29.6,23.7,13.8,24.0,17.3,2.0,87,77,58,30.05,29.78,13,3,29,0.02
2013-1-18,13.8,9.6,3.9,4.0,-2.6,-10.0,69,58,49,30.37,30.00,14,4,38,0.00
2013-1-19,38.6,28.0,13.4,23.0,15.7,4.0,70,61,47,30.27,29.79,12,4,30,0.00
2013-1-20,39.8,29.1,12.3,29.0,18.9,6.0,90,67,50,29.85,29.48,15,6,42,0.07
2013-1-21,16.9,12.5,8.7,11.0,5.3,-1.0,89,74,57,29.99,29.74,13,2,21,0.01
2013-1-22,14.1,6.9,-0.1,10.0,0.4,-10.0,88,75,62,30.02,29.73,12,2,18,0.03
2013-1-23,2.1,-2.6,-6.1,-6.0,-13.2,-16.0,74,61,49,30.11,30.00,12,3,23,0.00
2013-1-24,7.1,-0.5,-7.5,-9.0,-12.4,-15.0,76,58,45,30.25,30.06,32,6,32,0.00
2013-1-25,13.6,5.5,-2.8,3.0,-9.3,-15.0,84,52,31,30.31,30.05,11,2,41,0.01
2013-1-26,11.7,5.9,0.9,2.0,-3.2,-8.0,84,68,42,30.24,30.01,15,4,23,0.00
2013-1-27,18.8,11.4,5.0,0.0,-1.9,-4.0,74,57,41,30.46,30.24,21,4,28,0.00
2013-1-28,19.0,15.1,11.2,17.0,7.6,-4.0,92,74,43,30.44,30.00,8,1,11,0.17
2013-1-29,30.2,25.3,19.5,29.0,23.8,18.0,97,94,88,30.15,30.00,10,2,18,0.06
2013-1-30,52.3,41.0,30.2,51.0,40.4,30.0,98,97,95,30.06,29.33,18,4,42,0.15
2013-1-31,51.2,32.1,17.6,51.0,27.5,11.0,99,83,67,29.47,28.86,18,6,46,0.95